Time;durP1;ratioP1;P1;durP2;ratioP2;P2;SDS_P1;SDS_P2;PMS_P1;PMS_P2;Temp;Humidity;BMP_temperature;BMP_pressure;BME280_temperature;BME280_humidity;BME280_pressure;Samples;Min_cycle;Max_cycle;Signal;HPM_P1;HPM_P2
2022/12/21 00:01:30;;;;;;;20.02;7.45;;;-0.60;99.90;;;;;;6451262;23;20010;-59
2022/12/21 00:04:06;;;;;;;12.98;8.25;;;-0.60;99.90;;;;;;6425799;23;20015;-58
2022/12/21 00:06:38;;;;;;;28.65;10.63;;;-0.60;99.90;;;;;;6409423;23;20004;-57
2022/12/21 00:09:12;;;;;;;25.90;11.43;;;-0.50;99.90;;;;;;6424652;23;20008;-58
2022/12/21 00:11:44;;;;;;;27.27;10.50;;;-0.50;99.90;;;;;;6423758;23;20414;-58
2022/12/21 00:14:16;;;;;;;17.35;7.15;;;-0.40;99.90;;;;;;6451361;23;20051;-59
2022/12/21 00:16:51;;;;;;;23.20;10.40;;;-0.60;99.90;;;;;;6452534;23;20297;-59
2022/12/21 00:19:31;;;;;;;17.35;6.40;;;-0.60;99.90;;;;;;6426242;23;20336;-57
2022/12/21 00:22:03;;;;;;;27.65;11.60;;;-0.60;99.90;;;;;;6450656;23;20000;-58
2022/12/21 00:24:36;;;;;;;26.25;9.48;;;-0.50;99.90;;;;;;6424427;23;20010;-59
2022/12/21 00:27:10;;;;;;;30.98;10.98;;;-0.50;99.90;;;;;;6451064;23;19992;-59
2022/12/21 00:29:42;;;;;;;20.38;9.70;;;-0.50;99.90;;;;;;6451215;23;20052;-60
2022/12/21 00:32:15;;;;;;;16.25;9.25;;;-0.50;99.90;;;;;;6450699;23;19992;-58
2022/12/21 00:34:47;;;;;;;32.42;11.88;;;-0.50;99.90;;;;;;6398763;23;20270;-59
2022/12/21 00:37:20;;;;;;;20.90;9.65;;;-0.40;99.90;;;;;;6451128;23;19992;-59
2022/12/21 00:39:51;;;;;;;23.98;10.10;;;-0.40;99.90;;;;;;6398069;23;19992;-59
2022/12/21 00:42:22;;;;;;;25.27;10.18;;;-0.40;99.90;;;;;;6421934;23;20004;-59
2022/12/21 00:44:56;;;;;;;23.73;9.88;;;-0.40;99.90;;;;;;6452008;23;20147;-58
2022/12/21 00:47:29;;;;;;;26.13;11.32;;;-0.40;99.90;;;;;;6398828;23;19996;-59
2022/12/21 00:50:01;;;;;;;22.63;10.57;;;-0.30;99.90;;;;;;6400010;23;20012;-59
2022/12/21 00:52:37;;;;;;;;;;;-0.30;99.90;;;;;;6451982;23;20216;-59
2022/12/21 00:55:08;;;;;;;18.23;7.53;;;-0.40;99.90;;;;;;6450336;23;19954;-60
2022/12/21 00:57:39;;;;;;;27.50;8.75;;;-0.50;99.90;;;;;;6451020;23;20341;-58
2022/12/21 01:00:14;;;;;;;24.50;10.15;;;-0.50;99.90;;;;;;6451406;23;20232;-59
2022/12/21 01:02:47;;;;;;;23.75;8.77;;;-0.50;99.90;;;;;;6455511;22;20023;-60
2022/12/21 01:05:23;;;;;;;28.02;10.52;;;-0.40;99.90;;;;;;6439754;22;20016;-60
2022/12/21 01:07:57;;;;;;;30.77;10.18;;;-0.40;99.90;;;;;;6483572;22;20002;-59
2022/12/21 01:10:28;;;;;;;27.30;10.13;;;-0.40;99.90;;;;;;6483945;22;20038;-60
2022/12/21 01:13:02;;;;;;;18.13;9.82;;;-0.40;99.90;;;;;;6485550;22;20055;-57
2022/12/21 01:15:33;;;;;;;23.63;9.60;;;-0.40;99.90;;;;;;6496250;22;20477;-60
2022/12/21 01:18:04;;;;;;;26.30;11.50;;;-0.40;99.90;;;;;;6485244;22;20288;-59
2022/12/21 01:20:49;;;;;;;16.83;10.48;;;-0.50;99.90;;;;;;6432388;22;20453;-59
2022/12/21 01:23:22;;;;;;;13.68;8.05;;;-0.50;99.90;;;;;;6484418;22;20474;-58
2022/12/21 01:25:56;;;;;;;18.58;9.23;;;-0.50;99.90;;;;;;6485736;22;20002;-58
2022/12/21 01:28:30;;;;;;;18.50;10.07;;;-0.60;99.90;;;;;;6485871;22;20526;-57
2022/12/21 01:31:05;;;;;;;;;;;-0.60;99.90;;;;;;6484279;22;20000;-59
2022/12/21 01:33:39;;;;;;;12.20;7.43;;;-0.50;99.90;;;;;;6485473;22;20183;-60
2022/12/21 01:36:15;;;;;;;19.63;8.45;;;-0.50;99.90;;;;;;6458707;22;20000;-59
2022/12/21 01:38:49;;;;;;;20.10;10.23;;;-0.40;99.90;;;;;;6483905;22;20055;-59
2022/12/21 01:41:31;;;;;;;23.70;9.48;;;-0.40;99.90;;;;;;6483910;22;19999;-58
2022/12/21 01:44:51;;;;;;;15.57;9.23;;;-0.40;99.90;;;;;;6494955;22;19999;-59
2022/12/21 01:47:29;;;;;;;19.45;8.13;;;-0.50;99.90;;;;;;6457619;22;20027;-58
2022/12/21 01:50:23;;;;;;;11.60;7.00;;;-0.50;99.90;;;;;;6485908;22;20027;-59
2022/12/21 01:52:58;;;;;;;17.52;7.72;;;-0.50;99.90;;;;;;6486055;22;20002;-58
2022/12/21 01:55:35;;;;;;;21.55;9.13;;;-0.60;99.90;;;;;;6483255;22;20003;-60
2022/12/21 01:58:12;;;;;;;18.85;9.48;;;-0.50;99.90;;;;;;6484137;22;20018;-58
2022/12/21 02:00:44;;;;;;;19.50;9.07;;;-0.50;99.90;;;;;;6456746;22;20140;-59
2022/12/21 02:03:19;;;;;;;14.75;7.07;;;-0.60;99.90;;;;;;6481006;22;20015;-59
2022/12/21 02:06:01;;;;;;;20.75;9.77;;;-0.60;99.90;;;;;;6473693;22;20077;-59
2022/12/21 02:08:32;;;;;;;14.00;7.55;;;-0.60;99.90;;;;;;6458587;22;20528;-59
2022/12/21 02:11:07;;;;;;;20.65;8.75;;;-0.70;99.90;;;;;;6484141;22;20000;-59
2022/12/21 02:13:40;;;;;;;19.17;8.65;;;-0.70;99.90;;;;;;6458009;22;19999;-59
2022/12/21 02:16:25;;;;;;;16.02;8.15;;;-0.60;99.90;;;;;;6509799;22;20010;-58
2022/12/21 02:19:34;;;;;;;26.90;11.20;;;-0.70;99.90;;;;;;6509980;22;20003;-59
2022/12/21 02:22:31;;;;;;;24.73;8.88;;;-0.70;99.90;;;;;;6424794;23;19992;-59
2022/12/21 02:25:32;;;;;;;14.57;7.45;;;-0.70;99.90;;;;;;6450191;23;19996;-59
2022/12/21 02:28:21;;;;;;;21.08;9.02;;;-0.70;99.90;;;;;;6451473;23;20008;-59
2022/12/21 02:31:05;;;;;;;13.52;8.30;;;-0.70;99.90;;;;;;6450141;23;19999;-59
2022/12/21 02:33:48;;;;;;;22.20;9.60;;;-0.60;99.90;;;;;;6460083;23;19996;-60
2022/12/21 02:36:52;;;;;;;18.98;9.05;;;-0.60;99.90;;;;;;6425025;23;20000;-59
2022/12/21 02:40:00;;;;;;;24.10;10.07;;;-0.60;99.90;;;;;;6399108;23;20000;-59
2022/12/21 02:46:12;;;;;;;16.47;8.07;;;-0.60;99.90;;;;;;6450076;23;20047;-58
2022/12/21 02:49:09;;;;;;;22.40;9.93;;;-0.70;99.90;;;;;;6449721;23;20000;-58
2022/12/21 02:52:09;;;;;;;20.60;9.40;;;-0.70;99.90;;;;;;6447971;22;20266;-59
2022/12/21 02:54:46;;;;;;;16.17;8.40;;;-0.70;99.90;;;;;;6485683;22;20047;-60
2022/12/21 02:57:18;;;;;;;17.95;9.13;;;-0.70;99.90;;;;;;6456019;22;20014;-60
2022/12/21 02:59:52;;;;;;;16.00;8.18;;;-0.70;99.90;;;;;;6481676;22;20010;-59
2022/12/21 03:02:42;;;;;;;24.45;9.55;;;-0.70;99.90;;;;;;6457112;22;20526;-60
2022/12/21 03:05:18;;;;;;;18.10;7.95;;;-0.70;99.90;;;;;;6473036;22;20014;-59
2022/12/21 03:08:20;;;;;;;24.70;9.48;;;-0.60;99.90;;;;;;6495921;22;20007;-58
2022/12/21 03:11:01;;;;;;;21.27;9.63;;;-0.50;99.90;;;;;;6483220;22;20055;-59
2022/12/21 03:14:04;;;;;;;20.38;9.40;;;-0.50;99.90;;;;;;6485656;22;20114;-60
2022/12/21 03:16:44;;;;;;;22.63;9.05;;;-0.40;99.90;;;;;;6482296;22;20063;-59
2022/12/21 03:19:35;;;;;;;19.63;9.93;;;-0.40;99.90;;;;;;6485208;22;20051;-59
2022/12/21 03:22:14;;;;;;;28.55;10.30;;;-0.50;99.90;;;;;;6484002;22;20042;-58
2022/12/21 03:24:59;;;;;;;21.60;9.15;;;-0.40;99.90;;;;;;6483377;22;20000;-59
2022/12/21 03:27:36;;;;;;;20.35;9.48;;;-0.40;99.90;;;;;;6509074;22;20012;-59
2022/12/21 03:30:12;;;;;;;20.58;9.25;;;-0.40;99.90;;;;;;6484050;22;19991;-58
2022/12/21 03:33:05;;;;;;;18.45;9.52;;;-0.30;99.90;;;;;;6483431;22;20000;-58
2022/12/21 03:35:49;;;;;;;19.05;9.02;;;-0.40;99.90;;;;;;6458039;22;20371;-58
2022/12/21 03:38:48;;;;;;;28.67;10.82;;;-0.40;99.90;;;;;;6484342;22;20451;-59
2022/12/21 03:41:43;;;;;;;17.48;10.35;;;-0.50;99.90;;;;;;6458567;22;20000;-59
2022/12/21 03:44:26;;;;;;;22.23;8.52;;;-0.50;99.90;;;;;;6484775;22;19988;-58
2022/12/21 03:47:05;;;;;;;21.73;8.88;;;-0.40;99.90;;;;;;6485244;22;20000;-58
2022/12/21 03:49:51;;;;;;;26.05;8.57;;;-0.40;99.90;;;;;;6486119;22;20247;-58
2022/12/21 03:52:26;;;;;;;19.33;8.50;;;-0.40;99.90;;;;;;6481937;22;20007;-59
2022/12/21 03:55:15;;;;;;;21.08;9.38;;;-0.40;99.90;;;;;;6482763;22;20006;-58
2022/12/21 03:57:52;;;;;;;28.27;8.75;;;-0.40;99.90;;;;;;6519636;22;19994;-60
2022/12/21 04:00:28;;;;;;;20.92;9.93;;;-0.40;99.90;;;;;;6483549;22;19992;-58
2022/12/21 04:03:05;;;;;;;14.65;7.53;;;-0.40;99.90;;;;;;6484872;22;20079;-59
2022/12/21 04:05:52;;;;;;;18.08;8.52;;;-0.40;99.90;;;;;;6487729;22;20014;-59
2022/12/21 04:08:27;;;;;;;20.08;9.02;;;-0.40;99.90;;;;;;6459072;22;19992;-59
2022/12/21 04:11:01;;;;;;;21.42;9.40;;;-0.30;99.90;;;;;;6483563;22;20204;-61
2022/12/21 04:13:34;;;;;;;21.75;10.25;;;-0.30;99.90;;;;;;6485444;22;20051;-59
2022/12/21 04:16:09;;;;;;;20.20;8.95;;;-0.40;99.90;;;;;;6482345;22;20062;-59
2022/12/21 04:21:34;;;;;;;25.33;9.65;;;-0.40;99.90;;;;;;6485318;22;20394;-60
2022/12/21 04:30:13;;;;;;;17.65;8.57;;;-0.20;99.90;;;;;;6450585;23;19992;-59
2022/12/21 04:32:51;;;;;;;17.75;8.63;;;-0.10;99.90;;;;;;6424916;23;20004;-59
2022/12/21 04:35:25;;;;;;;22.25;9.68;;;0.00;99.90;;;;;;6423953;23;20488;-59
2022/12/21 04:37:59;;;;;;;;;;;0.00;99.90;;;;;;6425615;23;20302;-59
2022/12/21 04:40:40;;;;;;;17.92;8.55;;;-0.10;99.90;;;;;;6454452;22;20135;-58
2022/12/21 04:43:15;;;;;;;22.65;9.90;;;-0.10;99.90;;;;;;6485824;22;20004;-59
2022/12/21 04:45:47;;;;;;;18.20;9.57;;;-0.10;99.90;;;;;;6486537;22;20336;-60
2022/12/21 04:48:18;;;;;;;20.17;9.35;;;-0.10;99.90;;;;;;6486021;22;20055;-62
2022/12/21 04:50:52;;;;;;;16.27;8.85;;;-0.10;99.90;;;;;;6486924;22;20039;-60
2022/12/21 04:53:23;;;;;;;24.63;9.75;;;-0.20;99.90;;;;;;6486448;22;20039;-58
2022/12/21 04:56:02;;;;;;;23.77;10.65;;;-0.20;99.90;;;;;;6485141;22;20009;-59
2022/12/21 04:58:34;;;;;;;25.98;10.05;;;-0.20;99.90;;;;;;6485650;22;20051;-59
2022/12/21 05:01:10;;;;;;;22.30;9.68;;;-0.30;99.90;;;;;;6484691;22;20055;-59
2022/12/21 05:03:44;;;;;;;25.45;10.25;;;-0.40;99.90;;;;;;6483948;22;20060;-60
2022/12/21 05:06:17;;;;;;;23.33;10.68;;;-0.40;99.90;;;;;;6499971;22;20441;-59
2022/12/21 05:08:55;;;;;;;27.90;11.55;;;-0.40;99.90;;;;;;6485851;22;20006;-61
2022/12/21 05:11:27;;;;;;;20.23;9.65;;;-0.30;99.90;;;;;;6484157;22;20055;-58
2022/12/21 05:13:58;;;;;;;25.23;9.60;;;-0.30;99.90;;;;;;6459827;22;20014;-59
2022/12/21 05:16:31;;;;;;;22.23;10.75;;;-0.30;99.90;;;;;;6496699;22;19991;-59
2022/12/21 05:19:02;;;;;;;19.45;8.98;;;-0.40;99.90;;;;;;6459427;22;20000;-62
2022/12/21 05:21:34;;;;;;;21.25;9.50;;;-0.30;99.90;;;;;;6484700;22;20074;-63
2022/12/21 05:24:05;;;;;;;19.25;9.35;;;-0.30;99.90;;;;;;6484148;22;19996;-58
2022/12/21 05:26:39;;;;;;;18.08;8.65;;;-0.20;99.90;;;;;;6433737;22;20010;-60
2022/12/21 05:29:11;;;;;;;24.63;9.82;;;-0.30;99.90;;;;;;6485409;22;20043;-60
2022/12/21 05:31:47;;;;;;;18.27;8.90;;;-0.30;99.90;;;;;;6482552;22;19996;-59
2022/12/21 05:34:24;;;;;;;18.55;9.27;;;-0.30;99.90;;;;;;6486901;22;20039;-59
2022/12/21 05:36:59;;;;;;;20.08;9.15;;;-0.30;99.90;;;;;;6486073;22;20018;-60
2022/12/21 05:39:37;;;;;;;28.33;9.98;;;-0.30;99.90;;;;;;6483790;22;20098;-59
2022/12/21 05:42:09;;;;;;;25.27;9.25;;;-0.20;99.90;;;;;;6484156;22;20006;-60
2022/12/21 05:44:40;;;;;;;22.30;9.55;;;-0.30;99.90;;;;;;6457441;22;19999;-60
2022/12/21 05:47:16;;;;;;;22.00;9.05;;;-0.20;99.90;;;;;;6483964;22;20292;-59
2022/12/21 05:49:47;;;;;;;24.05;10.00;;;-0.10;99.90;;;;;;6457076;22;20002;-59
2022/12/21 05:52:20;;;;;;;21.25;9.70;;;-0.30;99.90;;;;;;6456660;22;20006;-58
2022/12/21 05:54:51;;;;;;;21.05;8.77;;;-0.40;99.90;;;;;;6483610;22;19992;-59
2022/12/21 05:57:23;;;;;;;24.88;9.77;;;-0.40;99.90;;;;;;6484111;22;20051;-60
2022/12/21 05:59:56;;;;;;;18.90;8.13;;;-0.40;99.90;;;;;;6482829;22;20000;-58
2022/12/21 06:02:27;;;;;;;19.58;8.25;;;-0.20;99.90;;;;;;6482687;22;20022;-59
2022/12/21 06:04:59;;;;;;;31.02;9.88;;;-0.30;99.90;;;;;;6474488;22;20011;-60
2022/12/21 06:07:33;;;;;;;20.35;8.05;;;-0.40;99.90;;;;;;6483522;22;20004;-59
2022/12/21 06:10:10;;;;;;;20.67;9.25;;;-0.50;99.90;;;;;;6457862;22;20610;-60
2022/12/21 06:12:43;;;;;;;17.98;9.50;;;-0.60;99.90;;;;;;6457273;22;19995;-58
2022/12/21 06:15:17;;;;;;;26.02;9.48;;;-0.50;99.90;;;;;;6483844;22;20006;-60
2022/12/21 06:17:49;;;;;;;23.47;9.57;;;-0.40;99.90;;;;;;6508073;22;19996;-59
2022/12/21 06:20:24;;;;;;;22.52;8.48;;;-0.50;99.90;;;;;;6484684;22;20006;-60
2022/12/21 06:22:58;;;;;;;22.05;9.77;;;-0.40;99.90;;;;;;6486035;22;20006;-59
2022/12/21 06:25:31;;;;;;;17.15;8.32;;;-0.30;99.90;;;;;;6457488;22;19996;-60
2022/12/21 06:28:05;;;;;;;19.40;9.70;;;-0.20;99.90;;;;;;6434526;22;20010;-59
2022/12/21 06:30:41;;;;;;;22.30;9.25;;;-0.20;99.90;;;;;;6485614;22;20050;-59
2022/12/21 06:33:13;;;;;;;21.25;9.30;;;-0.20;99.90;;;;;;6485528;22;20046;-59
2022/12/21 06:35:47;;;;;;;21.38;8.80;;;-0.20;99.90;;;;;;6484548;22;20618;-60
2022/12/21 06:38:18;;;;;;;24.60;9.82;;;-0.20;99.90;;;;;;6482078;22;19999;-60
2022/12/21 06:40:58;;;;;;;20.00;9.10;;;-0.20;99.90;;;;;;6483462;22;20051;-60
2022/12/21 06:43:35;;;;;;;22.30;8.73;;;-0.30;99.90;;;;;;6457129;22;20281;-59
2022/12/21 06:46:13;;;;;;;22.88;8.48;;;-0.20;99.90;;;;;;6508607;22;20543;-59
2022/12/21 06:48:51;;;;;;;19.00;8.52;;;-0.20;99.90;;;;;;6457214;22;20075;-58
2022/12/21 06:51:25;;;;;;;24.00;9.45;;;-0.30;99.90;;;;;;6509069;22;19995;-60
2022/12/21 06:54:05;;;;;;;23.85;9.25;;;-0.40;99.90;;;;;;6483869;22;20026;-59
2022/12/21 06:56:36;;;;;;;22.42;10.13;;;-0.40;99.90;;;;;;6484417;22;20315;-59
2022/12/21 06:59:07;;;;;;;23.65;8.65;;;-0.40;99.90;;;;;;6482413;22;20002;-60
2022/12/21 07:01:41;;;;;;;21.83;10.30;;;-0.40;99.90;;;;;;6482955;22;19995;-58
2022/12/21 07:04:15;;;;;;;21.00;8.43;;;-0.40;99.90;;;;;;6470105;22;20055;-59
2022/12/21 07:06:48;;;;;;;18.42;8.32;;;-0.40;99.90;;;;;;6506843;22;20007;-59
2022/12/21 07:09:24;;;;;;;29.33;10.88;;;-0.50;99.90;;;;;;6482195;22;20006;-65
2022/12/21 07:12:02;;;;;;;29.02;11.43;;;-0.50;99.90;;;;;;6509381;22;20000;-59
2022/12/21 07:14:33;;;;;;;19.13;9.32;;;-0.30;99.90;;;;;;6484658;22;20055;-60
2022/12/21 07:17:07;;;;;;;19.90;9.15;;;-0.30;99.90;;;;;;6484750;22;20048;-58
2022/12/21 07:19:44;;;;;;;23.52;9.75;;;-0.30;99.90;;;;;;6453968;22;20006;-60
2022/12/21 07:22:17;;;;;;;18.63;9.40;;;-0.30;99.90;;;;;;6488512;22;20003;-59
2022/12/21 07:24:54;;;;;;;24.40;10.10;;;-0.20;99.90;;;;;;6457175;22;20010;-59
2022/12/21 07:27:28;;;;;;;26.30;8.82;;;-0.20;99.90;;;;;;6480942;22;20008;-59
2022/12/21 07:30:01;;;;;;;19.50;9.00;;;-0.20;99.90;;;;;;6484486;22;20030;-59
2022/12/21 07:32:37;;;;;;;20.27;9.65;;;-0.30;99.90;;;;;;6484015;22;19991;-60
2022/12/21 07:35:09;;;;;;;18.30;9.15;;;-0.30;99.90;;;;;;6482701;22;20306;-60
2022/12/21 07:37:42;;;;;;;;;;;-0.30;99.90;;;;;;6481544;22;20018;-60
2022/12/21 07:40:15;;;;;;;23.58;10.40;;;-0.20;99.90;;;;;;6484469;22;19926;-60
2022/12/21 07:42:49;;;;;;;18.63;9.00;;;-0.20;99.90;;;;;;6484111;22;20051;-59
2022/12/21 07:45:20;;;;;;;23.42;9.98;;;-0.30;99.90;;;;;;6482639;22;20002;-60
2022/12/21 07:47:55;;;;;;;27.48;9.77;;;-0.20;99.90;;;;;;6484610;22;20006;-60
2022/12/21 07:50:26;;;;;;;22.05;10.15;;;-0.10;99.90;;;;;;6483131;22;19998;-60
2022/12/21 07:53:00;;;;;;;20.52;8.68;;;-0.10;99.90;;;;;;6481129;22;20059;-59
2022/12/21 07:55:37;;;;;;;17.55;8.80;;;-0.10;99.90;;;;;;6456690;22;20003;-60
2022/12/21 07:58:08;;;;;;;24.55;8.57;;;-0.20;99.90;;;;;;6494147;22;20043;-60
2022/12/21 08:00:40;;;;;;;18.80;8.60;;;-0.20;99.90;;;;;;6484488;22;20058;-59
2022/12/21 08:03:11;;;;;;;22.45;9.70;;;-0.20;99.90;;;;;;6455607;22;20010;-59
2022/12/21 08:05:43;;;;;;;28.98;12.48;;;-0.30;99.90;;;;;;6496804;22;20003;-59
2022/12/21 08:08:20;;;;;;;26.17;10.82;;;-0.30;99.90;;;;;;6488800;22;20027;-59
2022/12/21 08:10:51;;;;;;;27.13;11.52;;;-0.20;99.90;;;;;;6482133;22;20002;-59
2022/12/21 08:13:22;;;;;;;21.42;10.63;;;-0.20;99.90;;;;;;6508537;22;19999;-60
2022/12/21 08:16:07;;;;;;;23.70;11.57;;;-0.10;99.90;;;;;;6482183;22;20382;-59
2022/12/21 08:18:38;;;;;;;25.05;9.68;;;-0.10;99.90;;;;;;6432449;22;20009;-60
2022/12/21 08:21:12;;;;;;;23.88;10.65;;;0.00;99.90;;;;;;6485232;22;20054;-59
2022/12/21 08:23:52;;;;;;;20.30;9.25;;;-0.10;99.90;;;;;;6485010;22;20047;-59
2022/12/21 08:26:23;;;;;;;20.85;8.60;;;-0.10;99.90;;;;;;6485476;22;20006;-59
2022/12/21 08:28:57;;;;;;;23.25;8.85;;;-0.10;99.90;;;;;;6486766;22;20014;-61
2022/12/21 08:31:28;;;;;;;14.60;8.05;;;-0.10;99.90;;;;;;6483551;22;20051;-59
2022/12/21 08:34:02;;;;;;;18.10;8.60;;;-0.10;99.90;;;;;;6484188;22;20343;-60
2022/12/21 08:36:33;;;;;;;24.75;9.75;;;-0.10;99.90;;;;;;6485262;22;20301;-60
2022/12/21 08:39:04;;;;;;;24.85;11.68;;;-0.20;99.90;;;;;;6484688;22;19987;-59
2022/12/21 08:41:38;;;;;;;69.18;30.42;;;-0.20;99.90;;;;;;6486515;22;20073;-60
2022/12/21 08:44:14;;;;;;;25.33;12.75;;;-0.20;99.90;;;;;;6485875;22;20055;-60
2022/12/21 08:46:50;;;;;;;27.88;12.32;;;-0.10;99.90;;;;;;6484073;22;19999;-59
2022/12/21 08:49:22;;;;;;;26.90;10.27;;;-0.10;99.90;;;;;;6483020;22;20066;-61
2022/12/21 08:51:53;;;;;;;17.08;9.00;;;0.00;99.90;;;;;;6485849;22;20054;-60
2022/12/21 08:54:25;;;;;;;26.55;10.15;;;0.00;99.90;;;;;;6485280;22;20000;-59
2022/12/21 08:56:56;;;;;;;22.33;9.48;;;-0.10;99.90;;;;;;6486336;22;20056;-60
2022/12/21 08:59:33;;;;;;;20.98;8.93;;;0.00;99.90;;;;;;6483580;22;20003;-59
2022/12/21 09:02:06;;;;;;;24.75;10.63;;;0.00;99.90;;;;;;6485853;22;20070;-60
2022/12/21 09:04:38;;;;;;;20.85;8.57;;;0.10;99.90;;;;;;6442633;22;20010;-60
2022/12/21 09:07:12;;;;;;;17.52;8.07;;;-0.10;99.90;;;;;;6484916;22;20000;-59
2022/12/21 09:09:48;;;;;;;16.13;7.88;;;-0.10;99.90;;;;;;6484525;22;20018;-60
2022/12/21 09:12:22;;;;;;;17.38;7.93;;;-0.30;99.90;;;;;;6482985;22;20283;-60
2022/12/21 09:14:53;;;;;;;18.15;8.82;;;-0.30;99.90;;;;;;6485063;22;19996;-60
2022/12/21 09:17:24;;;;;;;23.20;9.65;;;-0.20;99.90;;;;;;6486318;22;20050;-60
2022/12/21 09:19:56;;;;;;;22.13;9.13;;;0.00;99.90;;;;;;6508329;22;20004;-61
2022/12/21 09:22:35;;;;;;;20.73;9.70;;;0.00;99.90;;;;;;6457297;22;20539;-59
2022/12/21 09:25:07;;;;;;;19.55;8.77;;;0.10;99.90;;;;;;6510487;22;19996;-60
2022/12/21 09:27:39;;;;;;;19.88;8.98;;;0.20;99.90;;;;;;6457440;22;20013;-60
2022/12/21 09:30:13;;;;;;;23.40;9.02;;;0.20;99.90;;;;;;6484287;22;20000;-59
2022/12/21 09:32:52;;;;;;;25.80;9.60;;;0.30;99.90;;;;;;6456877;22;20301;-60
2022/12/21 09:35:24;;;;;;;24.15;8.20;;;0.30;99.90;;;;;;6482862;22;20302;-59
2022/12/21 09:38:01;;;;;;;21.15;9.20;;;0.30;99.90;;;;;;6485057;22;20051;-60
2022/12/21 09:40:33;;;;;;;15.18;8.90;;;0.40;99.90;;;;;;6484249;22;20039;-62
2022/12/21 09:43:40;;;;;;;14.13;7.75;;;0.50;99.90;;;;;;6484389;22;20326;-60
2022/12/21 09:46:15;;;;;;;18.40;8.38;;;0.50;99.90;;;;;;6458197;22;20006;-61
2022/12/21 09:49:03;;;;;;;16.48;7.78;;;0.40;99.90;;;;;;6485279;22;19996;-61
2022/12/21 09:51:41;;;;;;;18.15;7.93;;;0.40;99.90;;;;;;6484993;22;20372;-59
2022/12/21 09:54:12;;;;;;;18.77;8.25;;;0.30;99.90;;;;;;6495503;22;20039;-60
2022/12/21 09:56:49;;;;;;;18.88;8.93;;;0.30;99.90;;;;;;6482992;22;20006;-60
2022/12/21 09:59:23;;;;;;;20.50;9.48;;;0.40;99.90;;;;;;6484653;22;20235;-60
2022/12/21 10:02:13;;;;;;;18.20;8.38;;;0.50;99.90;;;;;;6484269;22;19996;-60
2022/12/21 10:04:55;;;;;;;30.63;11.73;;;0.50;99.90;;;;;;6474148;22;20486;-60
2022/12/21 10:07:32;;;;;;;23.15;10.32;;;0.60;99.90;;;;;;6482536;22;20219;-60
2022/12/21 10:10:10;;;;;;;25.88;11.10;;;0.30;99.90;;;;;;6483109;22;20389;-61
2022/12/21 10:13:16;;;;;;;15.13;8.45;;;0.50;99.90;;;;;;6482551;22;19998;-61
2022/12/21 10:16:01;;;;;;;21.55;8.63;;;0.60;99.90;;;;;;6482476;22;19996;-60
2022/12/21 10:18:58;;;;;;;22.13;9.88;;;0.70;99.90;;;;;;6508465;22;20075;-61
2022/12/21 10:21:48;;;;;;;20.85;8.50;;;0.70;99.90;;;;;;6484596;22;20063;-60
2022/12/21 10:24:27;;;;;;;18.55;7.97;;;0.80;99.90;;;;;;6482357;22;20545;-60
2022/12/21 10:27:08;;;;;;;25.45;10.18;;;0.90;99.90;;;;;;6481921;22;20065;-60
2022/12/21 10:29:43;;;;;;;24.13;10.50;;;0.90;99.90;;;;;;6482319;22;20006;-60
2022/12/21 10:32:17;;;;;;;23.23;10.38;;;0.80;99.90;;;;;;6484941;22;20051;-59
2022/12/21 10:34:53;;;;;;;19.55;9.52;;;0.80;99.90;;;;;;6483729;22;20051;-59
2022/12/21 10:37:25;;;;;;;20.35;8.90;;;0.80;99.90;;;;;;6484858;22;20047;-61
2022/12/21 10:39:57;;;;;;;27.13;10.68;;;0.70;99.90;;;;;;6494651;22;20017;-60
2022/12/21 10:42:46;;;;;;;18.10;8.13;;;0.70;99.90;;;;;;6482946;22;20006;-60
2022/12/21 10:45:20;;;;;;;20.25;9.05;;;0.50;99.90;;;;;;6508033;22;20046;-60
2022/12/21 10:47:54;;;;;;;;;;;0.60;99.90;;;;;;6479133;22;20014;-60
2022/12/21 10:50:32;;;;;;;17.05;8.60;;;0.60;99.90;;;;;;6482361;22;19903;-60
2022/12/21 10:53:24;;;;;;;20.67;8.02;;;0.60;99.90;;;;;;6484738;22;20039;-63
2022/12/21 10:56:00;;;;;;;21.15;9.00;;;0.60;99.90;;;;;;6482267;22;20006;-62
2022/12/21 10:58:35;;;;;;;16.15;7.97;;;0.70;99.90;;;;;;6482622;22;20300;-62
2022/12/21 11:01:16;;;;;;;19.10;9.00;;;0.80;99.90;;;;;;6481898;22;20176;-60
2022/12/21 11:04:14;;;;;;;16.17;7.55;;;0.90;99.90;;;;;;6482426;22;20003;-61
2022/12/21 11:06:58;;;;;;;19.27;9.55;;;0.90;99.90;;;;;;6466642;22;20011;-61
2022/12/21 11:09:32;;;;;;;23.73;9.55;;;0.90;99.90;;;;;;6482716;22;20022;-60
2022/12/21 11:12:17;;;;;;;23.48;9.32;;;0.90;99.90;;;;;;6483344;22;20047;-60
2022/12/21 11:14:51;;;;;;;;;;;0.80;99.90;;;;;;6482168;22;20388;-61
2022/12/21 11:17:33;;;;;;;20.27;9.35;;;0.80;99.90;;;;;;6454895;22;20083;-61
2022/12/21 11:20:21;;;;;;;25.63;10.20;;;0.80;99.90;;;;;;6507744;22;20006;-61
2022/12/21 11:22:55;;;;;;;22.13;9.35;;;0.90;99.90;;;;;;6482013;22;20212;-61
2022/12/21 11:25:29;;;;;;;26.55;8.65;;;1.00;99.90;;;;;;6482747;22;19995;-62
2022/12/21 11:28:02;;;;;;;16.90;9.52;;;1.20;99.90;;;;;;6481886;22;20034;-61
2022/12/21 11:30:39;;;;;;;21.88;10.00;;;1.00;99.90;;;;;;6456999;22;20047;-61
2022/12/21 11:33:20;;;;;;;19.23;7.90;;;1.00;99.90;;;;;;6482325;22;20299;-60
2022/12/21 11:36:14;;;;;;;17.88;8.45;;;0.80;99.90;;;;;;6482305;22;19995;-63
2022/12/21 11:38:48;;;;;;;17.20;7.32;;;0.90;99.90;;;;;;6506043;22;20014;-62
2022/12/21 11:41:27;;;;;;;17.15;8.07;;;0.90;99.90;;;;;;6484019;22;20039;-62
2022/12/21 11:44:18;;;;;;;21.77;8.10;;;1.00;99.90;;;;;;6480310;22;20037;-62
2022/12/21 11:47:04;;;;;;;19.38;8.85;;;1.20;99.90;;;;;;6482152;22;19992;-61
2022/12/21 11:49:40;;;;;;;22.65;8.95;;;1.40;99.90;;;;;;6483233;22;20330;-64
2022/12/21 11:52:43;;;;;;;20.88;8.32;;;1.40;99.90;;;;;;6483396;22;20035;-61
2022/12/21 11:55:42;;;;;;;18.42;9.45;;;1.40;99.90;;;;;;6455303;22;19999;-61
2022/12/21 11:58:14;;;;;;;19.58;8.70;;;1.40;99.90;;;;;;6494888;22;19998;-62
2022/12/21 12:01:17;;;;;;;16.88;8.23;;;1.60;99.90;;;;;;6494055;22;19994;-61
2022/12/21 12:04:09;;;;;;;19.02;8.38;;;1.80;99.90;;;;;;6483212;22;20055;-62
2022/12/21 12:06:47;;;;;;;17.17;7.75;;;1.80;99.90;;;;;;6466044;22;20004;-61
2022/12/21 12:09:47;;;;;;;17.05;8.60;;;1.80;99.90;;;;;;6455786;22;20003;-63
2022/12/21 12:12:27;;;;;;;20.35;9.18;;;1.70;99.90;;;;;;6482140;22;20247;-62
2022/12/21 12:15:17;;;;;;;21.55;8.40;;;1.80;99.90;;;;;;6482340;22;19998;-61
2022/12/21 12:18:04;;;;;;;19.67;8.23;;;1.70;99.90;;;;;;6481763;22;19988;-63
2022/12/21 12:21:12;;;;;;;22.38;9.25;;;1.80;99.90;;;;;;6481040;22;19987;-60
2022/12/21 12:24:16;;;;;;;20.40;9.10;;;1.70;99.90;;;;;;6480225;22;19995;-62
2022/12/21 12:27:06;;;;;;;19.30;9.30;;;1.90;99.90;;;;;;6479657;22;19992;-61
2022/12/21 12:30:08;;;;;;;21.73;8.57;;;1.70;99.90;;;;;;6482571;22;20451;-61
2022/12/21 12:33:02;;;;;;;20.00;8.32;;;1.90;99.90;;;;;;6455101;22;19998;-62
2022/12/21 12:35:52;;;;;;;20.45;9.35;;;2.20;99.90;;;;;;6483256;22;20002;-63
2022/12/21 12:38:39;;;;;;;17.65;8.38;;;2.20;99.90;;;;;;6481824;22;19992;-61
2022/12/21 12:41:19;;;;;;;19.88;9.15;;;2.20;99.90;;;;;;6494021;22;20153;-60
2022/12/21 12:44:09;;;;;;;15.82;7.57;;;2.20;99.90;;;;;;6454768;22;19991;-59
2022/12/21 12:47:04;;;;;;;19.17;9.43;;;2.20;99.90;;;;;;6454415;22;20010;-60
2022/12/21 12:50:02;;;;;;;20.33;8.63;;;2.10;99.90;;;;;;6482711;22;20022;-60
2022/12/21 12:53:06;;;;;;;16.50;8.73;;;2.10;99.90;;;;;;6483742;22;20457;-61
2022/12/21 12:56:06;;;;;;;20.27;9.30;;;2.10;99.90;;;;;;6476098;22;19996;-61
2022/12/21 12:59:07;;;;;;;16.50;8.32;;;2.00;99.90;;;;;;6482453;22;19988;-61
2022/12/21 13:02:01;;;;;;;16.63;7.18;;;1.70;99.90;;;;;;6482809;22;20220;-62
2022/12/21 13:04:44;;;;;;;18.23;8.95;;;1.60;99.90;;;;;;6436303;22;20011;-61
2022/12/21 13:07:52;;;;;;;19.00;8.63;;;1.60;99.90;;;;;;6482809;22;19999;-61
2022/12/21 13:10:50;;;;;;;22.98;8.45;;;1.70;99.90;;;;;;6457816;22;19996;-61
2022/12/21 13:13:23;;;;;;;20.92;8.05;;;1.60;99.90;;;;;;6509093;22;19988;-61
2022/12/21 13:16:03;;;;;;;17.35;8.65;;;1.70;99.90;;;;;;6483485;22;20292;-61
2022/12/21 13:18:58;;;;;;;17.67;8.15;;;1.70;99.90;;;;;;6485134;22;20047;-61
2022/12/21 13:21:34;;;;;;;23.42;8.25;;;1.40;99.90;;;;;;6508853;22;19996;-61
2022/12/21 13:24:09;;;;;;;18.80;8.02;;;1.50;99.90;;;;;;6485091;22;20006;-61
2022/12/21 13:26:46;;;;;;;16.98;8.75;;;1.60;99.90;;;;;;6483386;22;20003;-61
2022/12/21 13:29:36;;;;;;;19.65;8.20;;;1.50;99.90;;;;;;6485699;22;20003;-61
2022/12/21 13:32:14;;;;;;;20.77;8.57;;;1.50;99.90;;;;;;6484276;22;19995;-61
2022/12/21 13:35:01;;;;;;;25.58;9.80;;;1.60;99.90;;;;;;6484560;22;20014;-61
2022/12/21 13:37:36;;;;;;;21.08;9.50;;;1.60;99.90;;;;;;6494014;22;20033;-61
2022/12/21 13:40:13;;;;;;;17.70;9.02;;;1.40;99.90;;;;;;6485664;22;20038;-61
2022/12/21 13:43:02;;;;;;;20.95;8.05;;;1.30;99.90;;;;;;6509110;22;20160;-62
2022/12/21 13:45:45;;;;;;;18.45;9.63;;;1.40;99.90;;;;;;6482873;22;19995;-61
2022/12/21 13:48:21;;;;;;;15.68;8.85;;;1.50;99.90;;;;;;6485341;22;19996;-62
2022/12/21 13:51:10;;;;;;;25.90;10.23;;;1.60;99.90;;;;;;6484607;22;20051;-62
2022/12/21 13:54:10;;;;;;;23.80;9.80;;;1.60;99.90;;;;;;6481568;22;20000;-61